createdAt,value
2023-11-08T00:00:14.845Z,15.21
2023-11-08T00:02:42.216Z,15.08
2023-11-08T00:05:09.397Z,14.86
2023-11-08T00:07:36.486Z,14.97
2023-11-08T00:10:03.782Z,14.57
2023-11-08T00:12:30.749Z,14.64
2023-11-08T00:14:58.829Z,15.00
2023-11-08T00:17:27.310Z,14.66
2023-11-08T00:19:55.906Z,14.70
2023-11-08T00:22:23.791Z,14.52
2023-11-08T00:24:50.706Z,14.86
2023-11-08T00:27:17.525Z,15.02
2023-11-08T00:29:44.377Z,14.55
2023-11-08T00:32:11.188Z,14.22
2023-11-08T00:34:38.697Z,14.84
2023-11-08T00:37:06.326Z,14.73
2023-11-08T00:39:33.177Z,15.00
2023-11-08T00:41:59.908Z,15.14
2023-11-08T00:44:27.181Z,15.22
2023-11-08T00:46:55.597Z,14.65
2023-11-08T00:49:22.337Z,15.19
2023-11-08T00:51:49.286Z,15.06
2023-11-08T00:54:16.143Z,15.23
2023-11-08T00:56:42.833Z,14.99
2023-11-08T00:59:09.794Z,15.35
2023-11-08T01:01:37.681Z,15.64
2023-11-08T01:04:10.992Z,15.12
2023-11-08T01:06:39.222Z,15.30
2023-11-08T01:09:10.641Z,15.16
2023-11-08T01:11:38.495Z,15.03
2023-11-08T01:14:06.213Z,14.78
2023-11-08T01:16:33.427Z,14.85
2023-11-08T01:19:00.297Z,15.12
2023-11-08T01:21:27.202Z,15.07
2023-11-08T01:23:54.512Z,15.04
2023-11-08T01:26:21.784Z,15.01
2023-11-08T01:28:48.918Z,15.24
2023-11-08T01:31:15.764Z,15.17
2023-11-08T01:33:42.554Z,14.99
2023-11-08T01:36:10.351Z,14.91
2023-11-08T01:38:37.216Z,15.11
2023-11-08T01:41:04.259Z,14.88
2023-11-08T01:43:33.390Z,14.45
2023-11-08T01:46:06.272Z,14.31
2023-11-08T01:48:34.794Z,14.75
2023-11-08T01:51:04.247Z,15.20
2023-11-08T01:53:35.213Z,15.01
2023-11-08T01:56:02.596Z,14.90
2023-11-08T01:58:31.057Z,14.91
2023-11-08T02:01:01.660Z,14.74
2023-11-08T02:03:29.401Z,15.31
2023-11-08T02:05:56.893Z,15.15
2023-11-08T02:08:24.790Z,15.26
2023-11-08T02:10:51.839Z,15.18
2023-11-08T02:13:18.665Z,15.06
2023-11-08T02:15:47.287Z,14.76
2023-11-08T02:18:14.187Z,14.90
2023-11-08T02:20:41.149Z,14.31
2023-11-08T02:23:08.211Z,14.68
2023-11-08T02:25:35.377Z,14.70
2023-11-08T02:28:02.394Z,14.96
2023-11-08T02:30:29.201Z,14.65
2023-11-08T02:32:56.251Z,14.47
2023-11-08T02:35:23.272Z,14.56
2023-11-08T02:37:50.107Z,14.29
2023-11-08T02:40:17.065Z,14.45
2023-11-08T02:42:45.572Z,14.57
2023-11-08T02:45:13.258Z,14.94
2023-11-08T02:47:40.718Z,14.90
2023-11-08T02:50:08.219Z,14.62
2023-11-08T02:52:35.474Z,14.92
2023-11-08T02:55:03.070Z,15.32
2023-11-08T02:57:30.912Z,14.76
2023-11-08T02:59:57.718Z,14.50
2023-11-08T03:02:24.832Z,14.85
2023-11-08T03:04:52.281Z,15.25
2023-11-08T03:07:20.583Z,15.08
2023-11-08T03:09:47.605Z,14.92
2023-11-08T03:12:15.089Z,14.95
2023-11-08T03:14:42.057Z,14.89
2023-11-08T03:17:09.134Z,14.89
2023-11-08T03:19:36.228Z,14.88
2023-11-08T03:22:03.846Z,14.57
2023-11-08T03:24:31.380Z,14.35
2023-11-08T03:26:58.412Z,14.26
2023-11-08T03:29:26.065Z,14.31
2023-11-08T03:31:53.093Z,14.48
2023-11-08T03:34:20.301Z,14.34
2023-11-08T03:36:47.430Z,14.48
2023-11-08T03:39:14.626Z,14.56
2023-11-08T03:41:41.724Z,14.54
2023-11-08T03:44:08.652Z,14.49
2023-11-08T03:46:35.798Z,14.48
2023-11-08T03:49:02.788Z,14.62
2023-11-08T03:51:29.898Z,14.73
2023-11-08T03:53:57.185Z,14.54
2023-11-08T03:56:24.507Z,14.72
2023-11-08T03:58:51.354Z,14.61
2023-11-08T04:01:18.129Z,14.36
2023-11-08T04:03:45.209Z,14.32
2023-11-08T04:06:12.226Z,14.28
2023-11-08T04:08:39.232Z,15.19
2023-11-08T04:11:05.986Z,15.28
2023-11-08T04:13:32.888Z,15.13
2023-11-08T04:15:59.835Z,14.75
2023-11-08T04:18:26.653Z,14.56
2023-11-08T04:20:53.499Z,14.73
2023-11-08T04:23:20.387Z,14.91
2023-11-08T04:25:50.900Z,15.03
2023-11-08T04:28:21.604Z,14.51
2023-11-08T04:30:48.497Z,14.57
2023-11-08T04:33:15.363Z,14.74
2023-11-08T04:35:42.279Z,14.54
2023-11-08T04:38:09.335Z,14.57
2023-11-08T04:40:36.772Z,14.65
2023-11-08T04:43:03.693Z,14.86
2023-11-08T04:45:30.640Z,14.58
2023-11-08T04:47:57.455Z,14.23
2023-11-08T04:50:24.353Z,14.50
2023-11-08T04:52:51.298Z,14.81
2023-11-08T04:55:18.289Z,15.02
2023-11-08T04:57:45.083Z,15.09
2023-11-08T05:00:12.334Z,15.01
2023-11-08T05:02:39.510Z,14.67
2023-11-08T05:05:07.156Z,14.72
2023-11-08T05:07:34.024Z,14.84
2023-11-08T05:10:00.991Z,14.66
2023-11-08T05:12:27.944Z,14.69
2023-11-08T05:14:54.763Z,14.69
2023-11-08T05:17:21.803Z,14.99
2023-11-08T05:19:48.704Z,14.93
2023-11-08T05:22:15.463Z,14.52
2023-11-08T05:24:42.853Z,14.94
2023-11-08T05:27:11.054Z,15.19
2023-11-08T05:29:37.902Z,16.05
2023-11-08T05:32:04.965Z,16.23
2023-11-08T05:34:31.812Z,15.80
2023-11-08T05:37:00.110Z,15.70
2023-11-08T05:39:28.706Z,16.18
2023-11-08T05:41:55.831Z,16.00
2023-11-08T05:44:22.978Z,15.35
2023-11-08T05:46:52.890Z,15.75
2023-11-08T05:49:19.928Z,15.85
2023-11-08T05:51:46.872Z,15.74
2023-11-08T05:54:13.767Z,15.83
2023-11-08T05:56:40.656Z,16.28
2023-11-08T05:59:07.666Z,16.20
2023-11-08T06:01:34.884Z,15.62
2023-11-08T06:04:02.113Z,16.18
2023-11-08T06:06:29.214Z,15.65
2023-11-08T06:08:56.245Z,15.66
2023-11-08T06:11:23.017Z,15.42
2023-11-08T06:14:30.930Z,15.27
2023-11-08T06:16:59.242Z,15.47
2023-11-08T06:19:32.240Z,15.13
2023-11-08T06:22:03.854Z,15.09
2023-11-08T06:24:39.749Z,15.35
2023-11-08T06:27:06.740Z,15.65
2023-11-08T06:29:38.198Z,15.15
2023-11-08T06:32:05.798Z,15.61
2023-11-08T06:34:32.813Z,15.73
2023-11-08T06:36:59.644Z,15.73
2023-11-08T06:39:26.452Z,15.99
2023-11-08T06:41:53.496Z,15.77
2023-11-08T06:44:20.295Z,16.04
2023-11-08T06:46:47.046Z,15.51
2023-11-08T06:49:14.285Z,15.69
2023-11-08T06:51:41.162Z,15.36
2023-11-08T06:54:09.201Z,15.73
2023-11-08T06:56:36.242Z,15.83
2023-11-08T06:59:03.274Z,15.93
2023-11-08T07:01:31.691Z,15.72
2023-11-08T07:03:59.879Z,15.81
2023-11-08T07:06:26.811Z,16.16
2023-11-08T07:08:53.531Z,16.40
2023-11-08T07:11:20.412Z,16.35
2023-11-08T07:13:47.529Z,16.52
2023-11-08T07:16:20.265Z,16.57
2023-11-08T07:18:53.264Z,16.46
2023-11-08T07:21:23.963Z,16.74
2023-11-08T07:23:51.016Z,16.46
2023-11-08T07:26:17.977Z,16.88
2023-11-08T07:28:46.424Z,16.53
2023-11-08T07:31:14.905Z,16.49
2023-11-08T07:33:42.490Z,16.83
2023-11-08T07:36:09.527Z,16.73
2023-11-08T07:38:36.769Z,16.51
2023-11-08T07:41:04.103Z,16.29
2023-11-08T07:43:31.891Z,16.85
2023-11-08T07:46:01.772Z,16.99
2023-11-08T07:48:28.637Z,17.04
2023-11-08T07:50:56.136Z,16.85
2023-11-08T07:53:23.305Z,16.83
2023-11-08T07:55:54.473Z,16.69
2023-11-08T07:58:23.415Z,16.85
2023-11-08T08:00:50.404Z,17.14
2023-11-08T08:03:17.458Z,16.78
2023-11-08T08:05:47.644Z,16.84
2023-11-08T08:08:15.772Z,17.06
2023-11-08T08:10:46.292Z,17.18
2023-11-08T08:13:23.544Z,17.11
2023-11-08T08:15:55.202Z,16.97
2023-11-08T08:18:22.337Z,16.70
2023-11-08T08:20:50.680Z,16.93
2023-11-08T08:23:18.078Z,16.83
2023-11-08T08:25:44.876Z,17.21
2023-11-08T08:28:13.400Z,17.13
2023-11-08T08:30:40.482Z,16.95
2023-11-08T08:33:07.224Z,16.52
2023-11-08T08:35:34.393Z,16.20
2023-11-08T08:38:02.002Z,16.51
2023-11-08T08:40:31.375Z,16.30
2023-11-08T08:42:58.658Z,16.62
2023-11-08T08:45:25.661Z,16.66
2023-11-08T08:47:53.969Z,16.63
2023-11-08T08:50:20.811Z,16.36
2023-11-08T08:52:47.840Z,16.58
2023-11-08T08:55:17.317Z,16.55
2023-11-08T08:57:47.914Z,16.68
2023-11-08T09:00:20.344Z,16.99
2023-11-08T09:02:50.591Z,17.01
2023-11-08T10:23:51.582Z,17.00
2023-11-08T10:26:25.259Z,17.10
2023-11-08T10:29:01.948Z,17.10
2023-11-08T10:31:35.069Z,16.63
2023-11-08T10:34:04.061Z,16.78
2023-11-08T10:36:34.401Z,16.89
2023-11-08T10:39:02.459Z,17.01
2023-11-08T10:41:29.557Z,17.60
2023-11-08T10:44:13.061Z,17.51
2023-11-08T10:46:41.900Z,17.11
2023-11-08T10:49:10.330Z,17.07
2023-11-08T10:51:39.562Z,17.60
2023-11-08T10:54:07.761Z,16.95
2023-11-08T10:56:36.347Z,17.08
2023-11-08T10:59:04.837Z,17.09
2023-11-08T11:01:33.550Z,17.57
2023-11-08T11:04:13.205Z,17.18
2023-11-08T11:06:41.627Z,17.01
2023-11-08T11:09:13.842Z,17.40
2023-11-08T11:11:49.157Z,17.48
2023-11-08T11:14:43.121Z,17.34
2023-11-08T11:17:28.237Z,17.22
2023-11-08T11:20:00.949Z,17.06
2023-11-08T11:22:28.230Z,17.25
2023-11-08T11:24:55.139Z,16.99
2023-11-08T11:27:34.801Z,17.18
2023-11-08T11:30:27.886Z,17.31
2023-11-08T11:32:58.587Z,17.10
2023-11-08T11:35:31.622Z,17.11
2023-11-08T11:38:07.438Z,17.53
2023-11-08T11:40:49.698Z,16.94
2023-11-08T11:43:31.997Z,16.98
2023-11-08T11:46:04.746Z,17.21
2023-11-08T11:48:36.180Z,17.02
2023-11-08T11:51:03.987Z,16.97
2023-11-08T11:53:31.964Z,17.00
2023-11-08T11:56:09.267Z,17.09
2023-11-08T11:58:40.087Z,16.68
2023-11-08T12:01:07.871Z,16.71
2023-11-08T12:03:35.534Z,16.66
2023-11-08T12:06:02.649Z,16.42
2023-11-08T12:08:29.613Z,16.82
2023-11-08T12:11:16.978Z,17.05
2023-11-08T12:13:51.551Z,17.10
2023-11-08T12:16:19.734Z,16.84
2023-11-08T12:18:53.205Z,16.70
2023-11-08T12:21:20.843Z,16.61
2023-11-08T12:23:50.093Z,17.24
2023-11-08T12:26:17.558Z,17.22
2023-11-08T12:28:45.447Z,17.45
2023-11-08T12:31:15.426Z,17.64
2023-11-08T12:33:42.481Z,17.41
2023-11-08T12:36:11.054Z,17.46
2023-11-08T12:38:41.302Z,17.06
2023-11-08T12:41:09.428Z,17.32
2023-11-08T12:43:59.050Z,17.23
2023-11-08T12:46:37.847Z,17.22
2023-11-08T12:49:15.613Z,17.95
2023-11-08T12:51:42.998Z,17.77
2023-11-08T12:54:12.353Z,17.66
2023-11-08T12:56:43.364Z,17.76
2023-11-08T12:59:18.214Z,17.69
2023-11-08T13:01:52.539Z,17.14
2023-11-08T13:04:20.787Z,17.15
2023-11-08T13:06:48.973Z,17.03
2023-11-08T13:09:16.372Z,17.44
2023-11-08T13:11:43.352Z,17.32
2023-11-08T13:14:10.170Z,17.03
2023-11-08T13:16:37.179Z,17.12
2023-11-08T13:19:05.525Z,17.82
2023-11-08T13:21:33.311Z,17.52
2023-11-08T13:24:05.657Z,17.26
2023-11-08T13:26:35.571Z,17.53
2023-11-08T13:29:03.440Z,17.75
2023-11-08T13:31:30.287Z,17.72
2023-11-08T13:33:57.220Z,17.53
2023-11-08T13:36:28.495Z,17.79
2023-11-08T13:38:56.342Z,17.82
2023-11-08T13:41:23.385Z,17.80
2023-11-08T13:43:50.517Z,17.65
2023-11-08T13:46:17.248Z,17.16
2023-11-08T13:48:44.370Z,17.09
2023-11-08T13:51:11.956Z,17.29
2023-11-08T13:53:39.043Z,17.23
2023-11-08T13:56:07.376Z,17.40
2023-11-08T13:58:36.122Z,17.28
2023-11-08T14:01:08.856Z,17.45
2023-11-08T14:03:37.558Z,17.30
2023-11-08T14:06:06.304Z,16.96
2023-11-08T14:08:33.914Z,16.81
2023-11-08T14:11:01.043Z,17.05
2023-11-08T14:13:28.043Z,16.96
2023-11-08T14:15:55.042Z,16.81
2023-11-08T14:18:22.116Z,16.61
2023-11-08T14:20:49.527Z,15.68
2023-11-08T14:23:16.472Z,15.37
2023-11-08T14:25:43.646Z,15.09
2023-11-08T14:28:11.239Z,14.64
2023-11-08T14:30:38.356Z,14.93
2023-11-08T14:33:05.523Z,14.67
2023-11-08T14:35:35.066Z,14.87
2023-11-08T14:38:02.572Z,14.33
2023-11-08T14:40:30.096Z,14.30
2023-11-08T14:42:57.092Z,14.07
2023-11-08T14:45:24.216Z,14.27
2023-11-08T14:47:52.198Z,14.19
2023-11-08T14:50:22.340Z,14.19
2023-11-08T14:52:51.372Z,13.61
2023-11-08T14:55:19.034Z,13.49
2023-11-08T14:57:46.105Z,13.80
2023-11-08T15:00:13.399Z,13.80
2023-11-08T15:02:40.594Z,14.09
2023-11-08T15:05:09.016Z,13.66
2023-11-08T15:09:42.573Z,13.80
2023-11-08T15:10:23.094Z,13.91
2023-11-08T15:12:50.381Z,14.12
2023-11-08T15:15:18.352Z,13.92
2023-11-08T15:17:46.273Z,14.07
2023-11-08T15:20:13.206Z,14.05
2023-11-08T15:22:41.482Z,14.21
2023-11-08T15:25:10.345Z,14.57
2023-11-08T15:27:37.338Z,14.46
2023-11-08T15:30:07.632Z,14.05
2023-11-08T15:32:35.173Z,13.75
2023-11-08T15:35:02.277Z,14.33
2023-11-08T15:37:29.123Z,14.11
2023-11-08T15:39:55.923Z,14.31
2023-11-08T15:42:22.850Z,14.17
2023-11-08T15:44:49.741Z,14.14
2023-11-08T15:47:16.670Z,13.96
2023-11-08T15:49:43.588Z,14.01
2023-11-08T15:52:12.082Z,13.79
2023-11-08T15:54:39.021Z,13.68
2023-11-08T15:57:05.999Z,13.72
2023-11-08T15:59:32.832Z,14.07
2023-11-08T16:02:00.316Z,14.01
2023-11-08T16:04:27.297Z,14.12
2023-11-08T16:06:54.365Z,13.96
2023-11-08T16:09:21.443Z,14.49
2023-11-08T16:11:48.302Z,14.56
2023-11-08T16:14:15.010Z,14.08
2023-11-08T16:16:43.040Z,14.37
2023-11-08T16:19:11.270Z,14.43
2023-11-08T16:21:38.804Z,14.53
2023-11-08T16:24:06.487Z,14.33
2023-11-08T16:26:33.944Z,14.76
2023-11-08T16:29:00.778Z,14.75
2023-11-08T16:32:32.559Z,14.45
2023-11-08T16:34:34.686Z,14.18
2023-11-08T16:37:02.022Z,13.93
2023-11-08T16:39:28.840Z,13.96
2023-11-08T16:41:56.918Z,14.17
2023-11-08T16:44:24.098Z,14.34
2023-11-08T16:46:50.877Z,14.00
2023-11-08T16:49:18.173Z,14.21
2023-11-08T16:51:48.123Z,14.25
2023-11-08T16:54:14.914Z,14.01
2023-11-08T16:56:42.888Z,13.96
2023-11-08T16:59:10.135Z,13.90
2023-11-08T17:01:37.490Z,14.01
2023-11-08T17:04:04.712Z,13.77
2023-11-08T17:06:31.935Z,14.13
2023-11-08T17:08:58.761Z,14.22
2023-11-08T17:11:25.614Z,14.25
2023-11-08T17:13:55.182Z,14.15
2023-11-08T17:16:22.835Z,14.33
2023-11-08T17:18:50.198Z,14.38
2023-11-08T17:21:17.173Z,14.06
2023-11-08T17:23:46.079Z,14.10
2023-11-08T17:26:15.831Z,14.44
2023-11-08T17:28:44.852Z,14.25
2023-11-08T17:31:13.270Z,14.12
2023-11-08T17:33:40.203Z,14.31
2023-11-08T17:36:09.508Z,14.13
2023-11-08T17:38:36.291Z,14.29
2023-11-08T17:41:04.471Z,14.28
2023-11-08T17:43:32.318Z,14.24
2023-11-08T17:45:59.705Z,14.72
2023-11-08T17:48:26.769Z,14.31
2023-11-08T17:51:00.786Z,14.42
2023-11-08T17:53:27.534Z,14.61
2023-11-08T17:55:55.593Z,14.85
2023-11-08T17:58:22.715Z,14.45
2023-11-08T18:00:49.643Z,14.16
2023-11-08T18:03:16.548Z,14.56
2023-11-08T18:05:44.472Z,14.38
2023-11-08T18:08:11.767Z,14.36
2023-11-08T18:10:39.226Z,14.77
2023-11-08T18:13:07.756Z,14.52
2023-11-08T18:15:34.637Z,14.18
2023-11-08T18:18:01.485Z,14.84
2023-11-08T18:20:28.612Z,14.95
2023-11-08T18:22:57.988Z,14.89
2023-11-08T18:25:25.088Z,14.90
2023-11-08T18:27:52.608Z,14.98
2023-11-08T18:30:24.561Z,15.36
2023-11-08T18:32:51.372Z,14.85
2023-11-08T18:35:18.415Z,14.77
2023-11-08T18:37:45.088Z,14.57
2023-11-08T18:40:12.570Z,14.86
2023-11-08T18:42:43.202Z,14.73
2023-11-08T18:45:10.687Z,14.95
2023-11-08T18:47:40.506Z,15.03
2023-11-08T18:50:09.982Z,14.99
2023-11-08T18:52:37.198Z,15.07
2023-11-08T18:55:05.987Z,15.02
2023-11-08T18:57:32.990Z,15.09
2023-11-08T19:00:01.336Z,14.82
2023-11-08T19:02:28.666Z,14.82
2023-11-08T19:04:55.723Z,14.42
2023-11-08T19:07:22.831Z,14.00
2023-11-08T19:09:49.874Z,14.16
2023-11-08T19:12:16.859Z,14.20
2023-11-08T19:14:48.079Z,14.10
2023-11-08T19:17:14.933Z,14.20
2023-11-08T19:19:42.177Z,14.19
2023-11-08T19:22:09.188Z,14.52
2023-11-08T19:24:36.168Z,14.50
2023-11-08T19:27:03.163Z,14.56
2023-11-08T19:29:30.143Z,14.32
2023-11-08T19:31:57.161Z,14.29
2023-11-08T19:34:24.049Z,14.12
2023-11-08T19:36:52.300Z,14.06
2023-11-08T19:39:19.791Z,14.10
2023-11-08T19:41:46.872Z,14.23
2023-11-08T19:44:14.264Z,14.31
2023-11-08T19:46:41.938Z,14.33
2023-11-08T19:49:10.116Z,14.42
2023-11-08T19:51:37.252Z,14.33
2023-11-08T19:54:04.311Z,13.99
2023-11-08T19:56:31.588Z,14.40
2023-11-08T19:58:58.371Z,14.40
2023-11-08T20:01:25.281Z,13.89
2023-11-08T20:03:52.346Z,13.97
2023-11-08T20:06:19.194Z,14.07
2023-11-08T20:08:46.135Z,14.00
2023-11-08T20:11:15.032Z,14.21
2023-11-08T20:13:42.066Z,14.06
2023-11-08T20:16:11.043Z,13.97
2023-11-08T20:18:38.118Z,13.85
2023-11-08T20:21:06.055Z,13.91
2023-11-08T20:23:32.964Z,13.80
2023-11-08T20:25:59.763Z,13.88
2023-11-08T20:28:30.060Z,13.83
2023-11-08T20:31:03.446Z,13.72
2023-11-08T20:33:31.329Z,13.94
2023-11-08T20:36:00.839Z,13.75
2023-11-08T20:38:28.968Z,14.22
2023-11-08T20:40:56.454Z,13.88
2023-11-08T20:43:26.544Z,13.71
2023-11-08T20:45:53.604Z,13.58
2023-11-08T20:48:20.367Z,13.77
2023-11-08T20:50:47.446Z,13.42
2023-11-08T20:53:14.678Z,13.32
2023-11-08T20:55:43.673Z,13.62
2023-11-08T20:58:11.303Z,13.89
2023-11-08T21:00:38.216Z,13.75
2023-11-08T21:03:06.293Z,14.46
2023-11-08T21:05:33.253Z,14.01
2023-11-08T21:08:00.214Z,13.99
2023-11-08T21:10:27.026Z,14.08
2023-11-08T21:12:53.959Z,14.03
2023-11-08T21:15:20.785Z,13.97
2023-11-08T21:17:47.667Z,14.19
2023-11-08T21:20:15.779Z,14.42
2023-11-08T21:22:43.186Z,13.96
2023-11-08T21:25:10.917Z,14.18
2023-11-08T21:27:38.665Z,14.16
2023-11-08T21:30:06.995Z,14.24
2023-11-08T21:32:34.702Z,14.18
2023-11-08T21:35:01.475Z,13.70
2023-11-08T21:37:28.315Z,13.94
2023-11-08T21:39:56.661Z,13.80
2023-11-08T21:42:23.820Z,13.41
2023-11-08T21:44:50.567Z,13.34
2023-11-08T21:47:17.426Z,12.81
2023-11-08T21:49:44.236Z,13.23
2023-11-08T21:52:11.270Z,13.09
2023-11-08T21:54:40.080Z,13.14
2023-11-08T21:57:10.947Z,13.19
2023-11-08T21:59:38.267Z,13.50
2023-11-08T22:02:07.630Z,13.25
2023-11-08T22:04:35.710Z,13.35
2023-11-08T22:07:03.080Z,12.85
2023-11-08T22:09:30.085Z,13.05
2023-11-08T22:11:57.255Z,12.59
2023-11-08T22:14:23.972Z,12.60
2023-11-08T22:16:50.907Z,12.47
2023-11-08T22:19:18.002Z,12.35
2023-11-08T22:21:45.070Z,12.63
2023-11-08T22:24:11.835Z,12.64
2023-11-08T22:26:38.678Z,12.40
2023-11-08T22:29:06.283Z,12.49
2023-11-08T22:31:33.568Z,12.62
2023-11-08T22:34:00.563Z,12.87
2023-11-08T22:36:28.080Z,12.46
2023-11-08T22:38:55.513Z,12.31
2023-11-08T22:41:22.436Z,11.95
2023-11-08T22:43:49.259Z,11.90
2023-11-08T22:46:21.106Z,12.01
2023-11-08T22:48:48.206Z,12.28
2023-11-08T22:51:22.104Z,12.22
2023-11-08T22:53:53.125Z,12.21
2023-11-08T22:56:20.309Z,12.22
2023-11-08T22:58:50.403Z,12.22
2023-11-08T23:01:33.636Z,11.93
2023-11-08T23:04:02.146Z,11.97
2023-11-08T23:06:29.102Z,11.77
2023-11-08T23:08:57.323Z,12.34
2023-11-08T23:11:24.309Z,12.00
2023-11-08T23:13:52.040Z,12.16
2023-11-08T23:16:22.149Z,11.98
2023-11-08T23:18:55.896Z,11.63
2023-11-08T23:21:23.425Z,11.67
2023-11-08T23:23:52.297Z,11.65
2023-11-08T23:26:19.510Z,11.66
2023-11-08T23:28:46.767Z,11.81
2023-11-08T23:31:13.822Z,11.72
2023-11-08T23:33:40.985Z,11.31
2023-11-08T23:36:08.733Z,11.36
2023-11-08T23:38:35.617Z,11.53
2023-11-08T23:41:02.724Z,11.46
2023-11-08T23:43:29.657Z,11.25
2023-11-08T23:45:56.516Z,10.96
2023-11-08T23:48:23.548Z,11.01
2023-11-08T23:50:50.453Z,10.98
2023-11-08T23:53:17.508Z,11.34
2023-11-08T23:55:44.284Z,11.22
2023-11-08T23:58:11.866Z,10.99
